• Join FlightAware (Why Join?)
  • Login
  • US Flag 
02:57PM EST


 

Airport Tracker/Info


-or-


 

Live Flight TrackerFlight Track Log ✈ N715CD ✈ 23-Oct-2013 ✈ KADS - KIDP

Flight Track Log - Related Links

Times and Time Zones

All times are in EDT time to prevent confusion due to time zone crossing. See the N715CD flight status page for this flight to view local times or setup timezone preferences in your user account.

Time Position Orientation Groundspeed Altitude Reporting Facility
EDT Latitude Longitude Course Direction KTS MPH feet Rate Location/Type
06:56PM 34.6961 -96.3817 11° North 170 196 7,500  Level Kansas City Center
06:57PM 34.7414 -96.3714 11° North 167 192 7,500  Level Kansas City Center
06:58PM 34.7861 -96.3600 12° North 165 190 7,500  Level Kansas City Center
06:59PM 34.8411 -96.3478 10° North 167 192 7,500  Level Kansas City Center
07:00PM 34.8869 -96.3369 11° North 167 192 7,500  Level Kansas City Center
07:01PM 34.9219 -96.3297 10° North 163 188 7,500  Level Fort Worth Center
07:02PM 34.9697 -96.3189 11° North 163 188 7,500  Level Fort Worth Center
07:03PM 35.0114 -96.3108 North 163 188 7,500  Level Fort Worth Center
07:04PM 35.0572 -96.2975 13° North 163 188 7,500  Level Fort Worth Center
07:05PM 35.1008 -96.2894 North 163 188 7,500  Level Fort Worth Center
07:06PM 35.1467 -96.2761 13° North 163 188 7,500  Level Fort Worth Center
07:07PM 35.1944 -96.2678 North 163 188 7,500  Level Fort Worth Center
07:08PM 35.2361 -96.2544 15° North 163 188 7,500  Level Fort Worth Center
07:09PM 35.2797 -96.2439 11° North 163 188 7,500  Level Fort Worth Center
07:10PM 35.3236 -96.2356 North 163 188 7,500  Level Fort Worth Center
07:11PM 35.3672 -96.2247 11° North 163 188 7,500  Level Fort Worth Center
07:13PM 35.4378 -96.2042 13° North 161 185 7,500  Level Kansas City Center
07:14PM 35.4811 -96.1931 12° North 159 183 7,500  Level Kansas City Center
07:15PM 35.5250 -96.1828 11° North 161 185 7,500  Level Kansas City Center
07:16PM 35.5758 -96.1697 12° North 157 181 7,500  Level Kansas City Center
07:17PM 35.6192 -96.1594 11° North 158 182 7,500  Level Kansas City Center
07:18PM 35.6614 -96.1497 11° North 155 178 7,500  Level Kansas City Center
07:19PM 35.6883 -96.1450 North 156 180 7,500  Level Kansas City Center
07:19PM 35.7044 -96.1392 16° North 157 181 7,500  Level Kansas City Center
07:20PM 35.7317 -96.1344 North 156 180 7,500  Level Kansas City Center
07:20PM 35.7464 -96.1297 15° North 156 180 7,500  Level Kansas City Center
07:21PM 35.7725 -96.1242 10° North 153 176 7,500  Level Kansas City Center
07:21PM 35.7881 -96.1181 18° North 154 177 7,500  Level Kansas City Center
07:22PM 35.8136 -96.1136 North 151 174 7,500  Level Kansas City Center
07:22PM 35.8331 -96.1067 16° North 152 175 7,500  Level Kansas City Center
07:23PM 35.8547 -96.1033 North 150 173 7,500  Level Kansas City Center
07:23PM 35.8736 -96.0975 14° North 150 173 7,500  Level Kansas City Center
07:24PM 35.8961 -96.0956 North 150 173 7,500  Level Kansas City Center
07:24PM 35.9150 -96.0875 19° North 150 173 7,500  Level Kansas City Center
07:25PM 35.9392 -96.0825 10° North 151 174 7,500  Level Kansas City Center
07:25PM 35.9653 -96.0747 14° North 152 175 7,500  Level Kansas City Center
07:26PM 35.9825 -96.0742 North 153 176 7,500  Level Kansas City Center
07:26PM 36.0067 -96.0653 17° North 152 175 7,500  Level Kansas City Center
07:27PM 36.0233 -96.0614 11° North 152 175 7,500  Level Kansas City Center
07:27PM 36.0486 -96.0542 13° North 153 176 7,500  Level Kansas City Center
07:28PM 36.0644 -96.0533 North 151 174 7,500  Level Kansas City Center
07:28PM 36.0897 -96.0450 15° North 150 173 7,500  Level Kansas City Center
07:29PM 36.1056 -96.0431 North 150 173 7,500  Level Kansas City Center
07:29PM 36.1306 -96.0344 16° North 149 171 7,500  Level Kansas City Center
07:30PM 36.1467 -96.0325 North 148 170 7,500  Level Kansas City Center
07:30PM 36.1711 -96.0253 13° North 149 171 7,500  Level Kansas City Center
07:31PM 36.1897 -96.0219 North 149 171 7,500  Level Kansas City Center
07:31PM 36.2119 -96.0147 15° North 149 171 7,500  Level Kansas City Center
07:32PM 36.2308 -96.0114 North 150 173 7,500  Level Kansas City Center
07:32PM 36.2614 -96.0025 13° North 150 173 7,500  Level Kansas City Center
07:33PM 36.2719 -96.0011 North 150 173 7,500  Level Kansas City Center
07:33PM 36.3025 -95.9925 13° North 150 173 7,500  Level Kansas City Center
07:34PM 36.3131 -95.9906 North 151 174 7,500  Level Kansas City Center
07:35PM 36.3450 -95.9814 13° North 152 175 7,500  Level Kansas City Center
07:35PM 36.3542 -95.9800 North 152 175 7,500  Level Kansas City Center
07:36PM 36.3869 -95.9717 12° North 152 175 7,500  Level Kansas City Center
07:36PM 36.3975 -95.9719 359° North 153 176 7,500  Level Kansas City Center
07:37PM 36.4292 -95.9611 15° North 153 176 7,500  Level Kansas City Center
07:37PM 36.4386 -95.9614 359° North 153 176 7,500  Level Kansas City Center
07:38PM 36.4706 -95.9517 14° North 152 175 7,500  Level Kansas City Center
07:38PM 36.4856 -95.9475 13° North 152 175 7,500  Level Kansas City Center
07:39PM 36.5117 -95.9397 13° North 151 174 7,500  Level Kansas City Center
07:39PM 36.5267 -95.9369 North 152 175 7,500  Level Kansas City Center
07:40PM 36.5625 -95.9278 12° North 152 175 7,500  Level Kansas City Center
07:40PM 36.5700 -95.9286 355° North 153 176 7,500  Level Kansas City Center
07:41PM 36.6056 -95.9189 12° North 154 177 7,500 -60 Level Kansas City Center
07:42PM 36.6469 -95.9069 13° North 153 176 7,400 -300 Descending Kansas City Center
07:43PM 36.6917 -95.8950 12° North 159 183 7,000 -420 Descending Kansas City Center
07:44PM 36.7372 -95.8853 10° North 163 188 6,600 -480 Descending Kansas City Center
07:45PM 36.7814 -95.8733 12° North 163 188 6,100 -480 Descending Kansas City Center
07:46PM 36.8247 -95.8619 12° North 161 185 5,700 -420 Descending Kansas City Center
07:47PM 36.8711 -95.8506 11° North 164 189 5,300 -480 Descending Kansas City Center
07:48PM 36.9183 -95.8306 19° North 174 200 4,800 -600 Descending Kansas City Center
07:49PM 36.9772 -95.7917 28° Northeast 191 220 4,100 -720 Descending Kansas City Center
07:50PM 37.0272 -95.7653 23° Northeast 195 224 3,400 -660 Descending Kansas City Center
07:51PM 37.0767 -95.7408 22° Northeast 194 223 2,800 -300 Descending Kansas City Center
07:52PM 37.1228 -95.7197 20° North 187 215 2,800 -300 Level Kansas City Center
07:53PM 37.1694 -95.7042 15° North 180 207 2,200 -420 Descending Kansas City Center
07:54PM 37.2294 -95.7036 360° North 179 206 2,000 -240 Descending Kansas City Center